Time;durP1;ratioP1;P1;durP2;ratioP2;P2;SDS_P1;SDS_P2;PMS_P1;PMS_P2;Temp;Humidity;BMP_temperature;BMP_pressure;BME280_temperature;BME280_humidity;BME280_pressure;Samples;Min_cycle;Max_cycle;Signal;HPM_P1;HPM_P2
2023/03/24 00:00:46;;;;;;;4.20;3.80;;;9.30;99.90;;;;;;5070530;28;20447;-50
2023/03/24 00:03:15;;;;;;;3.80;3.47;;;9.30;99.90;;;;;;5076417;28;20509;-51
2023/03/24 00:05:42;;;;;;;6.30;3.80;;;9.20;99.90;;;;;;5073864;28;20530;-51
2023/03/24 00:08:09;;;;;;;5.80;3.70;;;9.20;99.90;;;;;;5069355;28;20457;-51
2023/03/24 00:10:36;;;;;;;4.70;4.13;;;9.10;99.90;;;;;;5067733;28;20454;-52
2023/03/24 00:13:04;;;;;;;4.10;3.70;;;9.10;99.90;;;;;;5068659;28;20537;-52
2023/03/24 00:15:32;;;;;;;5.00;3.90;;;9.10;99.90;;;;;;5082421;28;20895;-51
2023/03/24 00:17:59;;;;;;;6.50;3.87;;;9.10;99.90;;;;;;5068204;28;20468;-51
2023/03/24 00:20:28;;;;;;;6.80;3.60;;;9.10;99.90;;;;;;5062976;28;20809;-50
2023/03/24 00:22:57;;;;;;;4.73;4.33;;;9.10;99.90;;;;;;5077226;28;20489;-50
2023/03/24 00:25:27;;;;;;;5.53;4.50;;;9.00;99.90;;;;;;5075996;28;20456;-51
2023/03/24 00:27:55;;;;;;;3.80;3.40;;;9.00;99.90;;;;;;5069988;28;20461;-51
2023/03/24 00:30:24;;;;;;;8.57;4.23;;;8.90;99.90;;;;;;5071881;28;20515;-51
2023/03/24 00:32:51;;;;;;;6.80;3.80;;;8.90;99.90;;;;;;5076304;28;20949;-51
2023/03/24 00:35:19;;;;;;;4.87;4.00;;;8.90;99.90;;;;;;5077801;28;20532;-51
2023/03/24 00:37:46;;;;;;;4.87;4.10;;;8.90;99.90;;;;;;5075995;28;20486;-51
2023/03/24 00:40:15;;;;;;;3.60;3.30;;;8.80;99.90;;;;;;5068046;28;20480;-51
2023/03/24 00:42:44;;;;;;;7.50;4.33;;;8.80;99.90;;;;;;5061136;28;20514;-51
2023/03/24 00:45:12;;;;;;;8.40;3.57;;;8.80;99.90;;;;;;5071343;28;20461;-51
2023/03/24 00:47:40;;;;;;;6.73;3.63;;;8.80;99.90;;;;;;5067126;28;20489;-50
2023/03/24 00:50:11;;;;;;;3.70;3.40;;;8.70;99.90;;;;;;5068487;28;20467;-51
2023/03/24 00:52:42;;;;;;;4.23;3.63;;;8.80;99.90;;;;;;5070770;28;20481;-51
2023/03/24 00:55:12;;;;;;;6.37;3.50;;;8.80;99.90;;;;;;5064709;28;20454;-51
2023/03/24 00:57:39;;;;;;;3.93;3.40;;;8.80;99.90;;;;;;5061316;28;20560;-50
2023/03/24 01:00:13;;;;;;;6.90;3.00;;;8.80;99.90;;;;;;5071493;28;20450;-50
2023/03/24 01:02:42;;;;;;;3.23;2.57;;;8.90;99.90;;;;;;5085849;28;20484;-51
2023/03/24 01:05:09;;;;;;;3.20;2.90;;;9.00;99.90;;;;;;5086594;28;20536;-50
2023/03/24 01:07:35;;;;;;;2.70;2.50;;;9.10;99.90;;;;;;5068523;28;20520;-50
2023/03/24 01:10:02;;;;;;;4.73;3.00;;;9.20;99.90;;;;;;5074475;28;20909;-52
2023/03/24 01:12:33;;;;;;;5.50;2.73;;;9.30;99.90;;;;;;5086035;28;20477;-51
2023/03/24 01:15:01;;;;;;;2.87;2.70;;;9.40;99.90;;;;;;5081994;28;20464;-51
2023/03/24 01:17:28;;;;;;;3.13;2.67;;;9.50;99.90;;;;;;5073225;28;20578;-51
2023/03/24 01:19:56;;;;;;;3.47;2.73;;;9.60;99.90;;;;;;5070555;28;20564;-51
2023/03/24 01:22:28;;;;;;;3.63;2.77;;;9.60;99.90;;;;;;5084527;28;20506;-51
2023/03/24 01:24:55;;;;;;;3.10;2.30;;;9.60;99.90;;;;;;5075072;28;20490;-50
2023/03/24 01:27:21;;;;;;;3.13;2.30;;;9.70;99.90;;;;;;5084170;28;20458;-51
2023/03/24 01:29:48;;;;;;;2.57;2.33;;;9.70;99.90;;;;;;5071764;28;20951;-51
2023/03/24 01:32:15;;;;;;;2.23;2.10;;;9.70;99.90;;;;;;5075112;28;20484;-51
2023/03/24 01:34:41;;;;;;;4.10;2.17;;;9.80;99.90;;;;;;5077101;28;20442;-51
2023/03/24 01:37:10;;;;;;;3.03;2.77;;;9.80;99.90;;;;;;5077108;28;20493;-51
2023/03/24 01:39:36;;;;;;;2.17;2.07;;;9.80;99.90;;;;;;5071102;28;20455;-51
2023/03/24 01:42:03;;;;;;;2.27;2.10;;;9.80;99.00;;;;;;5064919;28;20818;-51
2023/03/24 01:44:32;;;;;;;2.80;2.50;;;9.90;84.50;;;;;;5075678;28;20493;-52
2023/03/24 01:47:00;;;;;;;4.83;2.07;;;9.90;22.00;;;;;;5082052;28;20438;-51
2023/03/24 01:49:32;;;;;;;2.30;2.10;;;10.00;23.90;;;;;;5067141;28;20481;-50
2023/03/24 01:52:02;;;;;;;4.43;2.27;;;10.00;26.60;;;;;;5076164;28;20506;-52
2023/03/24 01:54:34;;;;;;;2.67;2.13;;;10.00;28.20;;;;;;5061758;28;20494;-51
2023/03/24 01:57:05;;;;;;;3.70;2.30;;;10.00;30.40;;;;;;5061783;28;21064;-51
2023/03/24 01:59:35;;;;;;;1.90;1.80;;;10.00;32.60;;;;;;5057479;28;20454;-50
2023/03/24 02:02:03;;;;;;;2.47;2.27;;;10.10;33.20;;;;;;5069298;28;20501;-51
2023/03/24 02:04:33;;;;;;;2.73;2.60;;;10.10;36.50;;;;;;5059336;28;20517;-51
2023/03/24 02:07:03;;;;;;;2.10;1.90;;;10.10;39.20;;;;;;5063947;28;20825;-51
2023/03/24 02:09:32;;;;;;;2.70;2.50;;;10.10;39.40;;;;;;5064292;28;20588;-51
2023/03/24 02:11:59;;;;;;;2.10;2.00;;;10.00;39.70;;;;;;5062733;28;20489;-56
2023/03/24 02:14:26;;;;;;;2.30;2.20;;;10.10;39.70;;;;;;5067759;28;20458;-51
2023/03/24 02:17:09;;;;;;;4.17;2.20;;;10.10;41.80;;;;;;5065704;28;20667;-51
2023/03/24 02:19:57;;;;;;;2.20;2.10;;;10.10;41.80;;;;;;5057971;28;20493;-50
2023/03/24 02:22:49;;;;;;;2.73;2.40;;;10.10;44.40;;;;;;5065447;28;20486;-50
2023/03/24 02:25:38;;;;;;;2.43;2.33;;;10.20;46.80;;;;;;5060425;28;20959;-52
2023/03/24 02:28:19;;;;;;;2.63;2.43;;;10.20;48.90;;;;;;5070692;28;20601;-51
2023/03/24 02:31:08;;;;;;;2.30;2.17;;;10.30;52.90;;;;;;5074031;28;20490;-51
2023/03/24 02:34:12;;;;;;;4.60;2.00;;;10.30;57.10;;;;;;5064795;28;20486;-51
2023/03/24 02:37:01;;;;;;;1.90;1.80;;;10.30;58.80;;;;;;5066900;28;20481;-51
2023/03/24 02:39:41;;;;;;;2.50;2.20;;;10.30;60.20;;;;;;5058978;28;20470;-51
2023/03/24 02:42:20;;;;;;;9.07;2.33;;;10.30;59.60;;;;;;5063933;28;20508;-50
2023/03/24 02:44:57;;;;;;;2.40;2.20;;;10.40;62.70;;;;;;5067855;28;20924;-51
2023/03/24 02:47:30;;;;;;;2.00;1.90;;;10.40;63.90;;;;;;5070722;28;20466;-51
2023/03/24 02:50:08;;;;;;;2.00;1.90;;;10.40;65.00;;;;;;5068859;28;20519;-51
2023/03/24 02:52:40;;;;;;;11.00;1.80;;;10.50;65.70;;;;;;5067718;28;20511;-50
2023/03/24 02:55:14;;;;;;;1.77;1.67;;;10.50;71.10;;;;;;5060561;28;20461;-51
2023/03/24 02:57:49;;;;;;;5.50;2.17;;;10.50;70.60;;;;;;5068162;28;20485;-51
2023/03/24 03:00:25;;;;;;;2.40;2.20;;;10.60;67.20;;;;;;5064119;28;20988;-51
2023/03/24 03:02:57;;;;;;;1.80;1.70;;;10.50;65.30;;;;;;5062506;28;20503;-51
2023/03/24 03:05:28;;;;;;;1.97;1.87;;;10.50;60.60;;;;;;5066052;28;20513;-51
2023/03/24 03:07:59;;;;;;;3.37;1.70;;;10.60;60.40;;;;;;5064344;28;20497;-50
2023/03/24 03:10:31;;;;;;;3.00;2.03;;;10.50;58.00;;;;;;5063799;28;20468;-51
2023/03/24 03:13:01;;;;;;;2.20;1.70;;;10.50;52.80;;;;;;5059510;28;20533;-51
2023/03/24 03:15:35;;;;;;;2.47;2.10;;;10.50;47.50;;;;;;5063585;28;20494;-50
2023/03/24 03:18:08;;;;;;;4.20;2.20;;;10.50;47.40;;;;;;5066616;28;20514;-50
2023/03/24 03:20:41;;;;;;;3.80;3.50;;;10.50;47.90;;;;;;5062827;28;20521;-50
2023/03/24 03:23:12;;;;;;;2.50;2.30;;;10.50;49.70;;;;;;5063346;28;21065;-51
2023/03/24 03:25:45;;;;;;;5.27;2.37;;;10.60;51.30;;;;;;5068847;28;20454;-50
2023/03/24 03:28:13;;;;;;;6.53;2.40;;;10.60;47.80;;;;;;5068038;28;20481;-51
2023/03/24 03:30:44;;;;;;;2.10;1.87;;;10.60;47.70;;;;;;5069046;28;20457;-51
2023/03/24 03:33:16;;;;;;;2.40;1.77;;;10.50;43.20;;;;;;5072076;28;20520;-51
2023/03/24 03:35:48;;;;;;;2.00;1.90;;;10.50;38.70;;;;;;5066732;28;20453;-51
2023/03/24 03:38:18;;;;;;;3.73;2.00;;;10.50;36.90;;;;;;5078422;28;20598;-51
2023/03/24 03:40:51;;;;;;;3.53;2.03;;;10.40;30.50;;;;;;5070332;28;20541;-51
2023/03/24 03:43:18;;;;;;;2.10;1.90;;;10.40;27.30;;;;;;5066298;28;20479;-50
2023/03/24 03:45:45;;;;;;;1.80;1.70;;;10.30;23.20;;;;;;5077793;28;20458;-51
2023/03/24 03:48:11;;;;;;;2.00;1.90;;;10.30;20.50;;;;;;5074357;28;20457;-51
2023/03/24 03:50:38;;;;;;;2.20;2.00;;;10.20;91.30;;;;;;5072702;28;20548;-50
2023/03/24 03:53:06;;;;;;;2.33;2.13;;;10.20;99.90;;;;;;5060764;28;20849;-51
2023/03/24 03:55:34;;;;;;;2.10;2.00;;;10.20;99.90;;;;;;5065452;28;20490;-51
2023/03/24 03:58:03;;;;;;;2.43;2.30;;;10.20;99.90;;;;;;5079610;28;20485;-51
2023/03/24 04:00:30;;;;;;;2.50;2.30;;;10.20;99.90;;;;;;5076837;28;20838;-50
2023/03/24 04:03:16;;;;;;;2.73;2.40;;;10.20;99.90;;;;;;5065078;28;21005;-52
2023/03/24 04:05:49;;;;;;;2.00;1.90;;;10.10;99.90;;;;;;5067412;28;20462;-52
2023/03/24 04:08:24;;;;;;;2.50;2.23;;;10.20;99.90;;;;;;5079611;28;20677;-51
2023/03/24 04:11:25;;;;;;;2.70;2.47;;;10.20;99.90;;;;;;5075589;28;20469;-51
2023/03/24 04:14:06;;;;;;;3.37;2.63;;;10.20;99.90;;;;;;5075761;28;20465;-51
2023/03/24 04:16:40;;;;;;;2.73;2.60;;;10.20;99.90;;;;;;5085519;28;20512;-52
2023/03/24 04:19:19;;;;;;;4.67;2.40;;;10.20;99.90;;;;;;5065376;28;20520;-51
2023/03/24 04:21:57;;;;;;;3.40;3.10;;;10.20;99.90;;;;;;5077336;28;20485;-51
2023/03/24 04:24:38;;;;;;;2.90;2.70;;;10.20;99.90;;;;;;5082222;28;20465;-51
2023/03/24 04:27:10;;;;;;;5.40;3.00;;;10.30;99.90;;;;;;5072347;28;20450;-51
2023/03/24 04:29:41;;;;;;;3.23;3.03;;;10.30;99.90;;;;;;5087779;28;20492;-50
2023/03/24 04:32:18;;;;;;;3.00;2.80;;;10.20;99.90;;;;;;5069043;28;20491;-52
2023/03/24 04:34:49;;;;;;;2.63;2.43;;;10.30;99.90;;;;;;5065056;28;22268;-52
2023/03/24 04:37:20;;;;;;;3.57;3.27;;;10.30;99.90;;;;;;5072661;28;20477;-53
2023/03/24 04:39:49;;;;;;;3.73;3.00;;;10.40;99.90;;;;;;5073647;28;20466;-55
2023/03/24 04:42:20;;;;;;;4.00;3.23;;;10.30;99.90;;;;;;5072759;28;20475;-52
2023/03/24 04:44:50;;;;;;;5.17;3.50;;;10.40;99.90;;;;;;5073181;28;20505;-52
2023/03/24 04:47:19;;;;;;;3.77;3.47;;;10.40;99.90;;;;;;5080502;28;20482;-53
2023/03/24 04:49:45;;;;;;;3.10;2.80;;;10.40;99.90;;;;;;5058331;28;20535;-52
2023/03/24 04:52:12;;;;;;;7.40;3.40;;;10.40;99.90;;;;;;5072648;28;20571;-52
2023/03/24 04:54:39;;;;;;;4.00;3.70;;;10.40;99.90;;;;;;5075087;28;20879;-53
2023/03/24 04:57:06;;;;;;;3.00;2.80;;;10.50;99.90;;;;;;5073198;28;20670;-52
2023/03/24 04:59:33;;;;;;;3.43;3.13;;;10.50;99.90;;;;;;5082921;28;20481;-52
2023/03/24 05:02:01;;;;;;;2.87;2.53;;;10.50;99.90;;;;;;5070525;28;20484;-53
2023/03/24 05:04:29;;;;;;;3.93;3.20;;;10.50;99.90;;;;;;5078904;28;20503;-53
2023/03/24 05:06:56;;;;;;;4.10;3.77;;;10.50;99.90;;;;;;5077480;28;20996;-51
2023/03/24 05:09:24;;;;;;;6.23;3.30;;;10.60;99.90;;;;;;5083220;28;20841;-52
2023/03/24 05:11:51;;;;;;;3.87;3.33;;;10.60;99.90;;;;;;5074892;28;20493;-52
2023/03/24 05:14:18;;;;;;;3.47;3.27;;;10.60;99.90;;;;;;5078934;28;20527;-52
2023/03/24 05:16:44;;;;;;;3.40;3.10;;;10.60;99.90;;;;;;5062741;28;20533;-53
2023/03/24 05:19:12;;;;;;;3.93;3.63;;;10.70;99.90;;;;;;5064357;28;20498;-53
2023/03/24 05:21:40;;;;;;;3.20;3.00;;;10.70;99.90;;;;;;5061220;28;20559;-52
2023/03/24 05:24:07;;;;;;;3.10;2.90;;;10.70;99.90;;;;;;5063379;28;20554;-52
2023/03/24 05:26:34;;;;;;;3.30;3.10;;;10.80;99.90;;;;;;5072502;28;20548;-52
2023/03/24 05:29:01;;;;;;;3.10;2.90;;;10.80;99.90;;;;;;5070534;28;20465;-52
2023/03/24 05:31:27;;;;;;;4.27;3.10;;;10.80;99.90;;;;;;5065003;28;22761;-53
2023/03/24 05:33:54;;;;;;;3.40;3.20;;;10.90;87.70;;;;;;5065976;28;22072;-54
2023/03/24 05:36:22;;;;;;;3.57;3.20;;;10.90;76.50;;;;;;5059621;28;20823;-54
2023/03/24 05:38:49;;;;;;;3.37;3.17;;;10.90;79.60;;;;;;5067962;28;20570;-53
2023/03/24 05:41:15;;;;;;;3.67;3.37;;;11.00;21.20;;;;;;5055967;28;20463;-54
2023/03/24 05:43:42;;;;;;;4.77;2.90;;;11.00;24.00;;;;;;5070452;28;20446;-54
2023/03/24 05:46:09;;;;;;;3.30;3.10;;;11.10;26.10;;;;;;5073298;28;20498;-53
2023/03/24 05:48:35;;;;;;;7.57;3.37;;;11.10;27.00;;;;;;5059797;28;20480;-53
2023/03/24 05:51:02;;;;;;;2.93;2.83;;;11.10;31.60;;;;;;5062101;28;20462;-52
2023/03/24 05:53:31;;;;;;;4.53;3.50;;;11.20;32.00;;;;;;5070434;28;20463;-53
2023/03/24 05:55:57;;;;;;;4.90;3.63;;;11.20;34.20;;;;;;5072491;28;20561;-54
2023/03/24 05:58:24;;;;;;;3.10;2.90;;;11.20;35.60;;;;;;5072512;28;20493;-53
2023/03/24 06:00:51;;;;;;;3.57;3.13;;;11.20;36.60;;;;;;5060761;28;20472;-53
2023/03/24 06:03:17;;;;;;;4.60;3.60;;;11.30;37.70;;;;;;5067707;28;20571;-54
2023/03/24 06:05:46;;;;;;;4.10;3.70;;;11.30;41.20;;;;;;5067321;28;20459;-53
2023/03/24 06:08:13;;;;;;;3.70;3.40;;;11.40;44.80;;;;;;5070115;28;20455;-53
2023/03/24 06:10:41;;;;;;;4.33;3.70;;;11.50;48.10;;;;;;5064899;28;20453;-53
2023/03/24 06:13:08;;;;;;;3.80;3.03;;;11.50;49.30;;;;;;5061554;28;20582;-53
2023/03/24 06:15:35;;;;;;;3.23;2.93;;;11.50;50.30;;;;;;5067525;28;20458;-53
2023/03/24 06:18:04;;;;;;;3.37;3.13;;;11.60;52.50;;;;;;5069926;28;20478;-53
2023/03/24 06:20:30;;;;;;;3.70;3.00;;;11.60;55.50;;;;;;5068898;28;20548;-53
2023/03/24 06:22:58;;;;;;;3.30;3.10;;;11.60;54.80;;;;;;5069032;28;21102;-53
2023/03/24 06:25:26;;;;;;;4.70;3.27;;;11.60;54.40;;;;;;5070388;28;22408;-54
2023/03/24 06:27:54;;;;;;;3.67;3.47;;;11.70;54.90;;;;;;5060136;28;20568;-53
2023/03/24 06:30:21;;;;;;;3.50;3.20;;;11.70;55.20;;;;;;5062951;28;20462;-53
2023/03/24 06:32:47;;;;;;;12.30;3.70;;;11.70;54.60;;;;;;5066168;28;20521;-53
2023/03/24 06:35:14;;;;;;;4.00;3.33;;;11.70;53.80;;;;;;5070967;28;20520;-53
2023/03/24 06:37:41;;;;;;;5.17;3.63;;;11.70;52.30;;;;;;5070117;28;20481;-53
2023/03/24 06:40:13;;;;;;;3.20;3.00;;;11.70;52.40;;;;;;5071620;28;20454;-54
2023/03/24 06:42:39;;;;;;;3.93;3.37;;;11.70;51.10;;;;;;5069118;28;20473;-53
2023/03/24 06:45:09;;;;;;;8.07;3.57;;;11.70;47.20;;;;;;5060628;28;20457;-54
2023/03/24 06:47:36;;;;;;;5.27;3.00;;;11.70;40.50;;;;;;5064198;28;20535;-53
2023/03/24 06:50:03;;;;;;;7.90;3.60;;;11.70;35.70;;;;;;5067057;28;20481;-54
2023/03/24 06:52:30;;;;;;;4.37;3.00;;;11.60;34.00;;;;;;5069017;28;20519;-53
2023/03/24 06:54:57;;;;;;;3.27;3.00;;;11.60;31.80;;;;;;5070642;28;20526;-53
2023/03/24 06:57:23;;;;;;;3.33;2.77;;;11.60;28.20;;;;;;5070322;28;20482;-53
2023/03/24 06:59:50;;;;;;;3.60;3.20;;;11.60;25.90;;;;;;5067040;28;20458;-53
2023/03/24 07:02:18;;;;;;;3.20;2.90;;;11.70;24.80;;;;;;5076557;28;22552;-53
2023/03/24 07:04:44;;;;;;;10.80;3.20;;;11.80;27.90;;;;;;5066351;28;20466;-52
2023/03/24 07:07:11;;;;;;;3.47;3.20;;;11.80;31.60;;;;;;5071312;28;20445;-53
2023/03/24 07:09:38;;;;;;;3.47;3.17;;;11.90;32.70;;;;;;5068260;28;20462;-54
2023/03/24 07:12:06;;;;;;;4.17;3.20;;;11.90;33.00;;;;;;5070665;28;20484;-54
2023/03/24 07:14:32;;;;;;;5.30;3.60;;;11.90;31.10;;;;;;5066839;28;20531;-53
2023/03/24 07:16:59;;;;;;;4.20;3.37;;;11.90;30.10;;;;;;5066907;28;20457;-52
2023/03/24 07:19:27;;;;;;;4.17;3.27;;;12.00;35.10;;;;;;5065230;28;20477;-53
2023/03/24 07:21:53;;;;;;;4.03;3.30;;;12.00;35.40;;;;;;5070427;28;20849;-53
2023/03/24 07:24:20;;;;;;;3.90;3.60;;;12.20;39.60;;;;;;5070333;28;20484;-53
2023/03/24 07:26:46;;;;;;;5.40;3.33;;;12.30;41.60;;;;;;5064419;28;20458;-53
2023/03/24 07:29:13;;;;;;;4.20;3.70;;;12.40;58.70;;;;;;5062123;28;20453;-53
2023/03/24 07:31:40;;;;;;;3.30;3.10;;;12.60;57.90;;;;;;5059408;28;20854;-53
2023/03/24 07:34:07;;;;;;;4.00;3.53;;;12.80;66.80;;;;;;5067899;28;20475;-53
2023/03/24 07:36:35;;;;;;;4.53;3.70;;;13.00;86.00;;;;;;5065128;28;20458;-53
2023/03/24 07:39:03;;;;;;;3.50;3.20;;;13.00;88.60;;;;;;5062812;28;20606;-54
2023/03/24 07:41:30;;;;;;;4.87;4.23;;;13.00;82.50;;;;;;5056660;28;20816;-53
2023/03/24 07:43:56;;;;;;;6.83;3.03;;;13.00;85.20;;;;;;5065407;28;20469;-54
2023/03/24 07:46:23;;;;;;;3.27;3.07;;;12.80;74.10;;;;;;5065560;28;20457;-54
2023/03/24 07:48:50;;;;;;;5.43;3.33;;;12.80;57.50;;;;;;5069690;28;20443;-54
2023/03/24 07:51:18;;;;;;;4.03;3.57;;;12.70;54.90;;;;;;5065979;28;20454;-53
2023/03/24 07:53:46;;;;;;;3.07;2.87;;;12.60;41.50;;;;;;5053328;28;20480;-53
2023/03/24 07:56:13;;;;;;;4.13;3.50;;;12.50;41.60;;;;;;5059278;28;20461;-53
2023/03/24 07:58:40;;;;;;;4.83;3.83;;;12.40;40.20;;;;;;5063897;28;20515;-53
2023/03/24 08:01:08;;;;;;;4.80;4.23;;;12.30;31.50;;;;;;5071125;28;20481;-53
2023/03/24 08:03:35;;;;;;;5.63;3.30;;;12.20;21.90;;;;;;5067461;28;20496;-54
2023/03/24 08:06:01;;;;;;;4.37;4.00;;;12.20;79.20;;;;;;5064721;28;20565;-53
2023/03/24 08:08:28;;;;;;;6.60;3.23;;;12.20;99.90;;;;;;5063204;28;20446;-52
2023/03/24 08:10:56;;;;;;;4.50;4.00;;;12.10;99.90;;;;;;5060568;28;20873;-53
2023/03/24 08:13:23;;;;;;;4.67;4.27;;;12.10;99.90;;;;;;5068629;28;20520;-53
2023/03/24 08:15:50;;;;;;;4.40;4.00;;;12.20;99.90;;;;;;5063629;28;20552;-53
2023/03/24 08:18:16;;;;;;;7.40;3.97;;;12.20;99.90;;;;;;5070034;28;20482;-52
2023/03/24 08:20:43;;;;;;;3.57;3.27;;;12.20;86.60;;;;;;5078278;28;20463;-53
2023/03/24 08:23:10;;;;;;;4.10;3.70;;;12.20;20.20;;;;;;5068628;28;20550;-53
2023/03/24 08:25:36;;;;;;;4.23;3.60;;;12.30;26.60;;;;;;5062439;28;20978;-53
2023/03/24 08:28:05;;;;;;;3.67;3.33;;;12.30;29.10;;;;;;5068686;28;20434;-54
2023/03/24 08:30:32;;;;;;;3.60;3.30;;;12.30;38.40;;;;;;5064742;28;20454;-53
2023/03/24 08:33:00;;;;;;;4.33;3.73;;;12.40;40.70;;;;;;5068551;28;20477;-54
2023/03/24 08:35:28;;;;;;;3.60;3.20;;;12.40;43.10;;;;;;5064153;28;20480;-53
2023/03/24 08:37:55;;;;;;;4.47;4.07;;;12.50;52.30;;;;;;5057689;28;20532;-54
2023/03/24 08:40:23;;;;;;;3.83;3.40;;;12.60;73.10;;;;;;5061511;28;20526;-53
2023/03/24 08:42:52;;;;;;;4.13;3.73;;;12.70;85.00;;;;;;5065155;28;20482;-53
2023/03/24 08:45:22;;;;;;;3.67;3.37;;;12.70;77.20;;;;;;5062739;28;20489;-53
2023/03/24 08:47:51;;;;;;;3.53;3.23;;;12.80;87.70;;;;;;5062801;28;20972;-53
2023/03/24 08:50:19;;;;;;;3.83;3.63;;;12.90;89.50;;;;;;5067416;28;20457;-54
2023/03/24 08:52:46;;;;;;;5.10;3.17;;;12.90;83.50;;;;;;5066931;28;20488;-54
2023/03/24 08:55:13;;;;;;;3.00;2.80;;;13.00;99.90;;;;;;5068709;28;20838;-53
2023/03/24 08:57:40;;;;;;;4.17;3.30;;;13.00;96.80;;;;;;5070552;28;20876;-54
2023/03/24 09:00:12;;;;;;;3.67;3.37;;;13.00;97.70;;;;;;5067960;28;20964;-55
2023/03/24 09:02:40;;;;;;;4.30;2.97;;;13.10;99.90;;;;;;5068871;28;20489;-53
2023/03/24 09:05:08;;;;;;;4.60;2.90;;;13.20;99.90;;;;;;5062826;28;20464;-54
2023/03/24 09:07:35;;;;;;;3.83;3.53;;;13.20;99.90;;;;;;5065982;28;20466;-52
2023/03/24 09:10:02;;;;;;;3.77;3.43;;;13.30;99.90;;;;;;5059337;28;21024;-53
2023/03/24 09:12:29;;;;;;;3.20;2.90;;;13.30;99.90;;;;;;5061815;28;20488;-54
2023/03/24 09:14:55;;;;;;;4.60;4.20;;;13.40;99.90;;;;;;5064762;28;20449;-54
2023/03/24 09:17:22;;;;;;;3.10;2.90;;;13.40;99.90;;;;;;5069269;28;20574;-53
2023/03/24 09:19:50;;;;;;;5.03;3.37;;;13.50;99.90;;;;;;5067720;28;20489;-53
2023/03/24 09:22:16;;;;;;;3.30;3.00;;;13.60;99.90;;;;;;5062564;28;20473;-53
2023/03/24 09:24:43;;;;;;;3.80;3.50;;;13.60;99.90;;;;;;5065403;28;20490;-53
2023/03/24 09:27:10;;;;;;;5.30;3.50;;;13.70;99.90;;;;;;5075379;28;20457;-53
2023/03/24 09:29:37;;;;;;;3.77;3.50;;;13.80;99.90;;;;;;5072441;28;20454;-53
2023/03/24 09:32:04;;;;;;;3.77;3.33;;;13.80;99.90;;;;;;5062770;28;20863;-54
2023/03/24 09:34:32;;;;;;;3.43;3.13;;;13.90;99.90;;;;;;5060791;28;20491;-53
2023/03/24 09:37:00;;;;;;;6.17;2.90;;;13.90;99.90;;;;;;5064842;28;21259;-54
2023/03/24 09:39:27;;;;;;;5.63;3.30;;;14.00;99.90;;;;;;5065237;28;20481;-53
2023/03/24 09:41:55;;;;;;;10.70;3.57;;;14.10;99.90;;;;;;5064918;28;20489;-54
2023/03/24 09:44:27;;;;;;;5.23;3.90;;;14.20;99.90;;;;;;5070323;28;20464;-54
2023/03/24 09:46:57;;;;;;;3.67;3.37;;;14.20;99.90;;;;;;5062045;28;20467;-53
2023/03/24 09:49:27;;;;;;;3.00;2.80;;;14.30;99.90;;;;;;5070416;28;20450;-53
2023/03/24 09:51:56;;;;;;;3.43;3.17;;;14.40;99.90;;;;;;5068064;28;21097;-53
2023/03/24 09:54:31;;;;;;;3.60;3.30;;;14.40;99.90;;;;;;5068675;28;20462;-54
2023/03/24 09:56:59;;;;;;;8.93;3.20;;;14.40;99.90;;;;;;5066395;28;20486;-52
2023/03/24 09:59:34;;;;;;;5.67;3.30;;;14.50;99.90;;;;;;5068784;28;20563;-55
2023/03/24 10:02:01;;;;;;;5.20;3.30;;;14.70;99.90;;;;;;5075055;28;20466;-54
2023/03/24 10:04:30;;;;;;;4.00;3.70;;;14.70;99.90;;;;;;5064335;28;20556;-54
2023/03/24 10:07:02;;;;;;;3.10;2.80;;;14.70;99.90;;;;;;5061164;28;20464;-53
2023/03/24 10:09:32;;;;;;;6.50;2.93;;;14.60;99.90;;;;;;5059035;28;20456;-54
2023/03/24 10:12:17;;;;;;;3.50;3.10;;;14.70;99.90;;;;;;5060966;28;20533;-53
2023/03/24 10:14:52;;;;;;;3.43;3.10;;;14.70;99.90;;;;;;5063941;28;21032;-52
2023/03/24 10:17:27;;;;;;;2.80;2.63;;;14.60;99.90;;;;;;5071689;28;21443;-53
2023/03/24 10:20:01;;;;;;;2.67;2.57;;;14.70;99.90;;;;;;5061592;28;20513;-53
2023/03/24 10:22:31;;;;;;;9.13;3.10;;;14.80;99.90;;;;;;5069095;28;20473;-54
2023/03/24 10:25:08;;;;;;;3.20;3.10;;;14.80;99.90;;;;;;5066020;28;20473;-53
2023/03/24 10:27:39;;;;;;;4.17;2.77;;;15.00;99.90;;;;;;5064146;28;20461;-54
2023/03/24 10:30:14;;;;;;;2.87;2.67;;;15.20;64.60;;;;;;5058136;28;20478;-52
2023/03/24 10:32:42;;;;;;;2.73;2.50;;;15.50;95.70;;;;;;5074375;22;20521;-54
2023/03/24 10:35:17;;;;;;;3.40;2.97;;;15.70;99.90;;;;;;5059875;28;21007;-57
2023/03/24 10:37:45;;;;;;;2.93;2.67;;;16.20;99.90;;;;;;5062907;28;20448;-54
2023/03/24 10:40:19;;;;;;;2.50;2.40;;;16.40;99.90;;;;;;5068335;28;21379;-54
2023/03/24 10:42:48;;;;;;;2.40;2.30;;;16.20;99.90;;;;;;5060570;28;20569;-55
2023/03/24 10:45:25;;;;;;;2.70;2.50;;;15.90;99.90;;;;;;5066706;28;20822;-55
2023/03/24 10:47:54;;;;;;;2.27;2.17;;;15.70;99.90;;;;;;5072032;28;20766;-55
2023/03/24 10:50:24;;;;;;;2.53;2.33;;;15.50;99.90;;;;;;5070868;28;20450;-55
2023/03/24 10:52:52;;;;;;;3.63;2.40;;;15.40;99.90;;;;;;5062443;28;20479;-55
2023/03/24 10:55:22;;;;;;;1.87;1.77;;;15.40;99.90;;;;;;5069723;28;20443;-55
2023/03/24 10:57:53;;;;;;;2.20;2.00;;;15.30;99.90;;;;;;5061787;28;20487;-57
2023/03/24 11:00:25;;;;;;;3.17;2.30;;;15.30;99.90;;;;;;5064166;28;20567;-56
2023/03/24 11:02:58;;;;;;;2.10;2.00;;;15.20;99.90;;;;;;5064942;28;20481;-55
2023/03/24 11:05:29;;;;;;;3.43;2.20;;;15.20;99.90;;;;;;5069867;28;20829;-54
2023/03/24 11:08:10;;;;;;;2.13;2.03;;;15.30;99.90;;;;;;5061224;28;20558;-55
2023/03/24 11:10:38;;;;;;;2.27;2.17;;;15.40;99.90;;;;;;5067368;28;20516;-55
2023/03/24 11:13:06;;;;;;;4.50;2.23;;;15.40;99.90;;;;;;5057522;28;20570;-54
2023/03/24 11:15:36;;;;;;;1.90;1.80;;;15.50;99.90;;;;;;5061665;28;20932;-55
2023/03/24 11:18:14;;;;;;;2.10;2.00;;;15.40;99.90;;;;;;5061235;28;20498;-54
2023/03/24 11:20:44;;;;;;;4.63;2.40;;;15.60;95.70;;;;;;5061546;28;20516;-56
2023/03/24 11:23:20;;;;;;;2.80;1.37;;;15.80;35.10;;;;;;5066340;28;20878;-56
2023/03/24 11:26:01;;;;;;;2.07;1.87;;;16.00;53.40;;;;;;5066988;28;20523;-54
2023/03/24 11:28:28;;;;;;;2.83;1.60;;;16.50;74.80;;;;;;5060784;28;20456;-55
2023/03/24 11:30:56;;;;;;;1.53;1.40;;;16.70;83.20;;;;;;5062132;28;20491;-55
2023/03/24 11:33:26;;;;;;;2.03;1.60;;;16.70;99.90;;;;;;5062279;28;20491;-55
2023/03/24 11:35:52;;;;;;;1.50;1.40;;;16.80;99.90;;;;;;5070190;28;20521;-56
2023/03/24 11:38:27;;;;;;;1.20;0.97;;;16.90;99.90;;;;;;5068351;28;20544;-56
2023/03/24 11:40:58;;;;;;;1.47;1.37;;;17.00;99.90;;;;;;5072220;28;20483;-54
2023/03/24 11:43:26;;;;;;;1.53;1.20;;;17.10;99.90;;;;;;5072799;28;20480;-56
2023/03/24 11:45:59;;;;;;;1.20;1.20;;;17.10;99.90;;;;;;5070143;28;20468;-55
2023/03/24 11:48:31;;;;;;;2.70;1.60;;;17.00;99.90;;;;;;5067344;28;20493;-55
2023/03/24 11:51:00;;;;;;;1.97;1.70;;;16.70;99.90;;;;;;5063904;28;20464;-56
2023/03/24 11:53:31;;;;;;;2.10;1.87;;;16.80;99.90;;;;;;5059157;28;21208;-56
2023/03/24 11:56:07;;;;;;;3.70;1.43;;;16.70;99.90;;;;;;5068436;28;20744;-54
2023/03/24 11:58:38;;;;;;;1.50;1.40;;;16.90;99.90;;;;;;5065563;28;20556;-56
2023/03/24 12:01:08;;;;;;;1.83;1.33;;;17.10;99.90;;;;;;5059775;28;20502;-55
2023/03/24 12:04:08;;;;;;;3.50;1.33;;;16.80;99.90;;;;;;5068482;28;20479;-56
2023/03/24 12:06:56;;;;;;;1.20;1.10;;;16.80;99.90;;;;;;5061719;28;20536;-55
2023/03/24 12:09:30;;;;;;;1.43;1.20;;;16.70;99.90;;;;;;5065201;28;20455;-56
2023/03/24 12:12:14;;;;;;;5.47;1.03;;;16.50;99.90;;;;;;5059488;28;20482;-56
2023/03/24 12:14:51;;;;;;;1.30;1.20;;;16.40;99.90;;;;;;5066687;28;20487;-54
2023/03/24 12:17:22;;;;;;;1.57;1.47;;;16.30;99.90;;;;;;5059781;28;20495;-55
2023/03/24 12:20:19;;;;;;;3.27;1.00;;;16.30;99.90;;;;;;5061547;28;20880;-55
2023/03/24 12:22:57;;;;;;;1.50;0.90;;;16.40;99.90;;;;;;5059899;28;20957;-57
2023/03/24 12:25:33;;;;;;;1.43;0.93;;;16.40;99.90;;;;;;5067151;28;20463;-55
2023/03/24 12:28:14;;;;;;;4.43;0.73;;;16.40;99.90;;;;;;5070889;28;20822;-55
2023/03/24 12:30:52;;;;;;;1.10;0.93;;;16.20;99.90;;;;;;5066167;28;20507;-55
2023/03/24 12:33:32;;;;;;;2.13;1.10;;;16.20;99.90;;;;;;5073486;28;20495;-55
2023/03/24 12:36:14;;;;;;;1.20;1.10;;;16.20;99.90;;;;;;5065663;28;20468;-54
2023/03/24 12:38:58;;;;;;;4.93;0.97;;;16.10;99.90;;;;;;5065153;28;20441;-55
2023/03/24 12:41:50;;;;;;;1.87;1.13;;;16.10;99.90;;;;;;5058662;28;20527;-56
2023/03/24 12:44:51;;;;;;;3.90;1.10;;;16.00;99.90;;;;;;5071364;28;20459;-54
2023/03/24 12:47:30;;;;;;;1.23;0.90;;;15.90;99.90;;;;;;5052519;28;20452;-56
2023/03/24 12:50:09;;;;;;;1.33;0.97;;;15.90;99.90;;;;;;5054920;28;20440;-56
2023/03/24 12:52:52;;;;;;;1.87;1.00;;;15.80;99.90;;;;;;5058088;28;20475;-56
2023/03/24 12:55:25;;;;;;;3.03;1.20;;;15.70;99.90;;;;;;5058567;28;20461;-56
2023/03/24 12:57:57;;;;;;;1.07;0.97;;;15.40;99.90;;;;;;5072172;28;20447;-56
2023/03/24 13:00:30;;;;;;;3.20;1.20;;;15.40;99.90;;;;;;5068228;28;20540;-55
2023/03/24 13:03:00;;;;;;;1.00;1.00;;;15.30;99.90;;;;;;5060210;28;20489;-55
2023/03/24 13:05:31;;;;;;;1.80;1.13;;;15.20;99.90;;;;;;5062017;28;20459;-54